Time;durP1;ratioP1;P1;durP2;ratioP2;P2;SDS_P1;SDS_P2;PMS_P1;PMS_P2;Temp;Humidity;BMP_temperature;BMP_pressure;BME280_temperature;BME280_humidity;BME280_pressure;Samples;Min_cycle;Max_cycle;Signal;HPM_P1;HPM_P2
2022/01/18 00:00:31;;;;;;;19.48;4.47;;;;;;;-0.36;100.00;101814.67;5128293;57;1139010;-76
2022/01/18 00:05:38;;;;;;;18.30;4.13;;;;;;;-0.40;100.00;101821.64;5128902;57;1139264;-76
2022/01/18 00:10:45;;;;;;;19.30;4.33;;;;;;;-0.45;100.00;101819.95;5129001;57;1139090;-78
2022/01/18 00:26:12;;;;;;;22.22;4.87;;;;;;;-0.55;100.00;101826.14;5134897;57;1139298;-78
2022/01/18 00:31:36;;;;;;;15.83;4.93;;;;;;;-0.61;100.00;101843.95;5134926;57;1139106;-75
2022/01/18 00:36:54;;;;;;;28.47;5.70;;;;;;;-0.66;100.00;101853.55;5133115;57;1139113;-81
2022/01/18 00:41:44;;;;;;;16.23;3.42;;;;;;;-0.66;100.00;101853.55;5131718;57;1139086;-74
2022/01/18 00:46:50;;;;;;;12.33;4.20;;;;;;;-0.65;100.00;101863.06;5135071;57;1137029;-69
2022/01/18 00:51:57;;;;;;;18.77;3.53;;;;;;;-0.68;100.00;101857.03;5135053;57;1137199;-68
2022/01/18 00:57:02;;;;;;;17.37;3.70;;;;;;;-0.71;100.00;101864.41;5096841;57;1141065;-70
2022/01/18 01:02:10;;;;;;;22.90;4.73;;;;;;;-0.68;100.00;101872.62;5142006;57;1141332;-69
2022/01/18 01:07:19;;;;;;;16.00;4.80;;;;;;;-0.67;100.00;101870.02;5142052;57;1141086;-70
2022/01/18 01:12:27;;;;;;;24.83;4.13;;;;;;;-0.67;100.00;101862.66;5141751;57;1141121;-70
2022/01/18 01:44:20;;;;;;;16.23;4.97;;;;;;;-0.64;100.00;101915.89;5145536;56;1141174;-70
2022/01/18 01:49:15;;;;;;;9.83;2.50;;;;;;;-0.66;100.00;101900.31;5155278;56;1141204;-71
2022/01/18 01:54:21;;;;;;;20.83;5.30;;;;;;;-0.72;100.00;101906.41;5156018;56;1139049;-69
2022/01/18 01:59:27;;;;;;;7.90;2.43;;;;;;;-0.72;100.00;101922.00;5155934;56;1141295;-68
2022/01/18 02:04:34;;;;;;;21.93;4.70;;;;;;;-0.72;100.00;101921.14;5155212;57;1139020;-69
2022/01/18 02:09:40;;;;;;;23.65;4.78;;;;;;;-0.79;100.00;101913.86;5156187;56;1141125;-70
2022/01/18 02:14:52;;;;;;;16.83;4.43;;;;;;;-0.81;100.00;101917.34;5125088;57;1141267;-69
2022/01/18 02:25:18;;;;;;;24.90;4.70;;;;;;;-0.83;100.00;101920.38;5131890;57;1139084;-71
2022/01/18 02:30:23;;;;;;;5.37;1.95;;;;;;;-0.84;100.00;101919.52;5131248;57;1141153;-71
2022/01/18 02:35:35;;;;;;;16.23;3.23;;;;;;;-0.88;100.00;101926.90;5131325;57;1139071;-69
2022/01/18 02:40:41;;;;;;;12.90;2.93;;;;;;;-0.87;100.00;101938.15;5131623;57;1139065;-70
2022/01/18 02:45:47;;;;;;;16.20;4.37;;;;;;;-0.87;100.00;101931.66;5131360;57;1138992;-70
2022/01/18 02:50:53;;;;;;;16.40;3.83;;;;;;;-0.89;100.00;101920.41;5131391;57;1139073;-69
2022/01/18 02:56:01;;;;;;;21.03;4.73;;;;;;;-0.91;100.00;101924.75;5139339;57;1139174;-69
2022/01/18 03:06:14;;;;;;;22.07;4.80;;;;;;;-0.94;100.00;101913.12;5135462;56;1139260;-68
2022/01/18 03:11:20;;;;;;;18.57;5.20;;;;;;;-0.93;100.00;101925.23;5130604;56;1139069;-69
2022/01/18 03:16:25;;;;;;;27.53;4.87;;;;;;;-0.92;100.00;101923.92;5130736;57;1139120;-69
2022/01/18 03:21:32;;;;;;;13.73;4.83;;;;;;;-0.89;100.00;101929.06;5143659;56;1139161;-70
2022/01/18 03:28:04;;;;;;;8.33;2.70;;;;;;;-0.86;100.00;101926.89;5155769;56;1139337;-70
2022/01/18 03:31:46;;;;;;;17.73;4.33;;;;;;;-0.85;100.00;101949.39;5154524;56;1137237;-71
2022/01/18 03:36:53;;;;;;;37.00;10.78;;;;;;;-0.81;100.00;101954.56;5155636;56;1139129;-70
2022/01/18 03:42:32;;;;;;;13.10;4.17;;;;;;;-0.81;100.00;101954.56;5150105;56;1141333;-69
2022/01/18 03:47:06;;;;;;;11.53;2.80;;;;;;;-0.84;100.00;101962.37;5143404;56;1139113;-70
2022/01/18 03:52:12;;;;;;;21.07;3.50;;;;;;;-0.86;100.00;101974.50;5144727;56;1139093;-70
2022/01/18 03:57:19;;;;;;;16.73;2.70;;;;;;;-0.82;100.00;101975.34;5144700;56;1139189;-68
2022/01/18 04:02:25;;;;;;;15.13;3.97;;;;;;;-0.85;100.00;101982.72;5144599;56;1139337;-69
2022/01/18 11:47:19;;;;;;;27.37;9.70;;;;;;;2.13;100.00;102451.58;5300739;54;46098;-75
2022/01/18 11:52:35;;;;;;;25.00;8.20;;;;;;;2.24;100.00;102448.83;5072875;57;1135124;-74
2022/01/18 11:57:37;;;;;;;28.33;9.70;;;;;;;2.42;100.00;102446.85;5113141;56;1136943;-77
2022/01/18 12:02:46;;;;;;;30.47;9.10;;;;;;;2.52;100.00;102435.83;5084319;57;1137263;-77
2022/01/18 12:07:57;;;;;;;34.27;9.33;;;;;;;2.56;100.00;102437.52;5079521;57;1136929;-77
2022/01/18 12:13:13;;;;;;;35.73;10.03;;;;;;;2.58;100.00;102444.03;5006932;57;1136951;-77
2022/01/18 12:18:25;;;;;;;33.53;11.40;;;;;;;2.76;100.00;102430.69;5030129;57;1139149;-79
2022/01/18 12:23:44;;;;;;;68.80;17.23;;;;;;;3.09;100.00;102443.24;5118762;57;1139158;-77
2022/01/18 12:29:07;;;;;;;52.47;13.17;;;;;;;3.28;100.00;102454.27;5090732;56;1139085;-77
2022/01/18 12:34:03;;;;;;;39.60;10.90;;;;;;;3.48;100.00;102441.73;5116360;56;1139116;-76
2022/01/18 12:39:09;;;;;;;120.83;57.17;;;;;;;3.55;97.51;102439.85;5084646;57;1139424;-79
2022/01/18 12:44:24;;;;;;;45.23;19.40;;;;;;;3.65;97.21;102453.66;5077224;57;1136985;-76
2022/01/18 12:49:29;;;;;;;42.70;11.48;;;;;;;3.68;97.06;102451.81;5132459;57;1138997;-78
2022/01/18 12:54:38;;;;;;;48.87;13.50;;;;;;;3.84;94.82;102455.02;5109516;57;1139041;-79
2022/01/18 13:00:07;;;;;;;57.03;16.33;;;;;;;4.02;95.73;102450.75;5072116;57;1138975;-80
2022/01/18 13:05:12;;;;;;;32.90;11.53;;;;;;;4.22;93.53;102439.44;5032736;57;1139234;-77
2022/01/18 13:10:18;;;;;;;25.97;9.47;;;;;;;4.35;93.10;102445.72;5011645;57;1139082;-79
2022/01/18 13:15:35;;;;;;;41.07;11.23;;;;;;;4.55;92.68;102457.51;5130925;56;1136973;-77
2022/01/18 13:26:02;;;;;;;51.68;17.50;;;;;;;4.80;91.16;102463.51;5078773;57;1139058;-79
2022/01/18 13:31:24;;;;;;;62.57;16.90;;;;;;;4.64;90.16;102464.30;5079261;57;1139110;-78
2022/01/18 13:36:32;;;;;;;41.00;12.07;;;;;;;4.66;90.62;102481.30;5107501;57;1139125;-78
2022/01/18 13:41:38;;;;;;;22.77;8.53;;;;;;;4.65;90.61;102480.88;5112067;56;1139025;-79
2022/01/18 13:46:44;;;;;;;21.27;6.43;;;;;;;4.51;89.96;102476.80;5119814;56;1137014;-79
2022/01/18 13:52:12;;;;;;;60.70;31.20;;;;;;;4.46;90.76;102485.20;5072123;57;1137216;-77
2022/01/18 13:57:21;;;;;;;43.20;13.20;;;;;;;4.52;91.66;102487.70;5049208;57;1139093;-76
2022/01/18 14:02:29;;;;;;;29.80;8.43;;;;;;;4.08;91.16;102487.73;5082561;57;1139233;-76
2022/01/18 14:07:35;;;;;;;37.00;10.53;;;;;;;4.32;92.28;102483.76;5054568;57;1137088;-77
2022/01/18 14:12:41;;;;;;;60.63;18.20;;;;;;;4.24;91.41;102485.23;5038320;58;1139029;-75
2022/01/18 14:18:02;;;;;;;40.63;12.50;;;;;;;3.67;92.25;102478.88;5038594;58;1139067;-75
2022/01/18 14:23:18;;;;;;;250.20;172.43;;;;;;;3.11;93.77;102474.15;5058314;57;1137097;-78
2022/01/18 14:28:29;;;;;;;53.33;29.60;;;;;;;2.89;94.89;102490.19;5072213;57;1141452;-75
2022/01/18 14:33:32;;;;;;;336.97;150.17;;;;;;;2.45;96.33;102496.41;5074257;57;1137182;-77
2022/01/18 14:38:38;;;;;;;274.97;116.33;;;;;;;2.03;98.08;102490.38;5090733;57;1141258;-78
2022/01/18 14:43:44;;;;;;;121.93;73.53;;;;;;;1.82;99.36;102494.09;5130513;57;1141133;-78
2022/01/18 14:48:49;;;;;;;70.77;37.37;;;;;;;1.73;99.67;102509.38;5128011;56;1139079;-78
2022/01/18 14:53:55;;;;;;;53.53;15.87;;;;;;;1.48;100.00;102501.80;5125436;57;1137009;-75
2022/01/18 14:59:01;;;;;;;52.00;16.07;;;;;;;1.26;100.00;102503.25;5089428;57;1139017;-77
2022/01/18 15:04:07;;;;;;;64.87;27.87;;;;;;;1.11;100.00;102507.70;5126359;57;1139024;-75
2022/01/18 15:09:13;;;;;;;318.90;111.03;;;;;;;1.01;100.00;102502.57;5207128;56;1139061;-78
2022/01/18 15:14:20;;;;;;;340.60;115.20;;;;;;;0.93;100.00;102519.10;5157740;56;1143214;-79
2022/01/18 15:19:26;;;;;;;289.00;81.12;;;;;;;0.87;100.00;102508.74;5075856;57;1143317;-79
2022/01/18 15:24:31;;;;;;;198.27;70.10;;;;;;;0.80;100.00;102517.01;5106506;57;1141125;-82
2022/01/18 15:29:38;;;;;;;161.20;60.13;;;;;;;0.75;100.00;102526.61;5073010;57;1141236;-76
2022/01/18 15:34:44;;;;;;;56.70;22.30;;;;;;;0.74;100.00;102530.52;5068188;57;1141219;-77
2022/01/18 15:39:51;;;;;;;40.65;16.25;;;;;;;0.67;100.00;102511.44;5067918;57;1137288;-80
2022/01/18 15:44:57;;;;;;;35.10;9.97;;;;;;;0.61;100.00;102530.55;5099297;57;1136972;-74
2022/01/18 15:50:04;;;;;;;21.10;7.47;;;;;;;0.55;100.00;102530.59;5081386;57;1141189;-83
2022/01/18 15:55:10;;;;;;;33.78;7.92;;;;;;;0.49;100.00;102521.93;5079141;57;1139000;-75
2022/01/18 16:00:16;;;;;;;35.37;11.37;;;;;;;0.43;100.00;102524.14;5093800;56;1139221;-80
2022/01/18 16:05:22;;;;;;;29.73;11.87;;;;;;;0.40;100.00;102522.84;5149800;56;1141346;-81
2022/01/18 16:10:28;;;;;;;29.50;9.10;;;;;;;0.41;100.00;102527.62;5042655;57;1141464;-78
2022/01/18 16:15:35;;;;;;;31.40;8.50;;;;;;;0.42;100.00;102531.52;5097745;57;1139119;-81
2022/01/18 16:20:41;;;;;;;220.63;70.47;;;;;;;0.44;100.00;102533.69;5081546;57;1138998;-77
2022/01/18 16:25:47;;;;;;;176.57;88.43;;;;;;;0.45;100.00;102529.34;5086398;57;1143268;-77
2022/01/18 16:30:54;;;;;;;25.67;9.67;;;;;;;0.49;100.00;102531.91;5085949;57;1143446;-80
2022/01/18 16:36:02;;;;;;;37.30;10.10;;;;;;;0.49;100.00;102529.73;5094705;57;1139025;-74
2022/01/18 16:41:08;;;;;;;72.07;30.50;;;;;;;0.47;100.00;102529.74;5079741;57;1141592;-80
2022/01/18 16:46:14;;;;;;;32.57;9.07;;;;;;;0.47;100.00;102527.57;5096331;57;1141073;-74
2022/01/18 16:51:20;;;;;;;24.07;6.80;;;;;;;0.49;100.00;102525.40;5087658;56;1139370;-80
2022/01/18 16:56:25;;;;;;;18.60;6.17;;;;;;;0.47;100.00;102526.27;5085626;57;1139473;-74
2022/01/18 17:01:31;;;;;;;38.53;9.73;;;;;;;0.46;100.00;102520.67;5083176;57;1139061;-76
2022/01/18 17:06:38;;;;;;;35.08;10.75;;;;;;;0.42;100.00;102517.20;5078193;57;1139305;-78
2022/01/18 17:11:44;;;;;;;31.83;10.20;;;;;;;0.44;100.00;102508.09;5085008;56;1141195;-79
2022/01/18 17:16:50;;;;;;;30.23;8.90;;;;;;;0.44;100.00;102514.16;5088090;57;1141076;-83
2022/01/18 17:21:56;;;;;;;30.37;10.30;;;;;;;0.48;100.00;102504.58;5093720;57;1139492;-78
2022/01/18 17:27:03;;;;;;;75.60;30.57;;;;;;;0.49;100.00;102505.88;5083825;57;1141263;-84
2022/01/18 17:32:09;;;;;;;27.57;9.93;;;;;;;0.57;100.00;102501.52;5085490;57;1141310;-78
2022/01/18 17:37:14;;;;;;;40.10;11.10;;;;;;;0.57;100.00;102505.42;5092430;57;1139270;-72
2022/01/18 17:42:20;;;;;;;33.37;11.53;;;;;;;0.58;100.00;102508.89;5081519;56;1141210;-79
2022/01/18 17:47:26;;;;;;;126.43;66.60;;;;;;;0.59;100.00;102509.33;5085533;57;1141567;-75
2022/01/18 17:52:32;;;;;;;120.60;45.90;;;;;;;0.60;100.00;102501.95;5067699;57;1143404;-76
2022/01/18 17:57:38;;;;;;;71.37;32.47;;;;;;;0.59;100.00;102495.88;5080038;57;1143470;-78
2022/01/18 18:02:44;;;;;;;83.73;36.23;;;;;;;0.54;100.00;102506.73;5070262;57;1141551;-74
2022/01/18 18:07:50;;;;;;;84.40;32.03;;;;;;;0.48;100.00;102505.88;5090737;57;1141088;-80
2022/01/18 18:12:56;;;;;;;77.17;29.87;;;;;;;0.39;100.00;102508.09;5080911;56;1141120;-76
2022/01/18 18:18:03;;;;;;;206.57;80.10;;;;;;;0.38;100.00;102500.30;5039897;57;1141123;-79
2022/01/18 18:23:10;;;;;;;148.10;51.70;;;;;;;0.34;100.00;102504.20;5088397;57;1143458;-77
2022/01/18 18:28:19;;;;;;;230.03;76.63;;;;;;;0.38;100.00;102511.56;5036138;57;1143360;-79
2022/01/18 18:33:25;;;;;;;208.27;71.20;;;;;;;0.37;100.00;102507.23;5036015;57;1143487;-75
2022/01/18 18:38:40;;;;;;;453.33;133.47;;;;;;;0.41;100.00;102495.08;5036679;58;1143343;-78
2022/01/18 18:43:41;;;;;;;332.23;111.03;;;;;;;0.38;100.00;102476.44;5035062;57;1145291;-76
2022/01/18 18:48:45;;;;;;;156.13;55.60;;;;;;;0.32;100.00;102482.95;5035746;57;1145318;-79
2022/01/18 18:53:51;;;;;;;198.75;77.15;;;;;;;0.27;100.00;102481.69;5060073;57;1143240;-75
2022/01/18 18:59:17;;;;;;;95.67;39.10;;;;;;;0.21;100.00;102483.00;5083923;57;1143591;-75
2022/01/18 19:04:12;;;;;;;81.50;33.70;;;;;;;0.16;100.00;102492.98;5045084;57;1139033;-75
2022/01/18 19:09:18;;;;;;;103.03;34.83;;;;;;;0.16;100.00;102501.66;5046145;57;1139061;-75
2022/01/18 19:14:25;;;;;;;147.17;65.00;;;;;;;0.16;100.00;102493.84;5064952;57;1141116;-77
2022/01/18 19:19:31;;;;;;;71.40;25.57;;;;;;;0.16;100.00;102496.45;5082870;56;1141042;-72
2022/01/18 19:24:37;;;;;;;64.90;19.47;;;;;;;0.20;100.00;102492.11;5126676;57;1139041;-75
2022/01/18 19:29:43;;;;;;;56.40;18.37;;;;;;;0.22;100.00;102496.44;5120864;56;1139095;-75
2022/01/18 19:34:49;;;;;;;56.07;19.77;;;;;;;0.20;100.00;102485.17;5130028;57;1139600;-72
2022/01/18 19:39:55;;;;;;;48.20;15.97;;;;;;;0.24;100.00;102487.33;5153500;56;1138994;-73
2022/01/18 19:45:01;;;;;;;65.40;19.20;;;;;;;0.28;100.00;102476.05;5153162;56;1139245;-76
2022/01/18 19:50:09;;;;;;;45.80;16.30;;;;;;;0.32;100.00;102474.70;5183168;56;1139203;-77
2022/01/18 19:55:15;;;;;;;49.33;16.03;;;;;;;0.42;100.00;102464.28;5153245;56;1139087;-78
2022/01/18 20:00:21;;;;;;;54.90;19.97;;;;;;;0.49;100.00;102457.72;5160255;56;1139095;-73
2022/01/18 20:05:29;;;;;;;47.07;15.43;;;;;;;0.53;100.00;102448.16;5131686;57;1139434;-78
2022/01/18 20:10:35;;;;;;;51.70;17.43;;;;;;;0.57;100.00;102461.16;5131748;57;1139022;-79
2022/01/18 20:15:41;;;;;;;62.90;22.53;;;;;;;0.59;100.00;102496.31;5131800;57;1139097;-83
2022/01/18 20:20:48;;;;;;;64.93;20.53;;;;;;;0.63;100.00;102491.05;5174424;56;1137023;-76
2022/01/18 20:25:56;;;;;;;72.40;21.05;;;;;;;0.67;100.00;102472.38;5217537;56;1137082;-84
2022/01/18 20:31:01;;;;;;;54.37;18.13;;;;;;;0.66;100.00;102449.38;5208982;56;1141375;-75
2022/01/18 20:36:06;;;;;;;55.03;15.33;;;;;;;0.66;100.00;102438.97;5157874;56;1141612;-77
2022/01/18 20:41:22;;;;;;;68.90;18.80;;;;;;;0.66;100.00;102412.93;5156937;56;1141094;-73
2022/01/18 20:46:20;;;;;;;45.33;12.13;;;;;;;0.65;100.00;102413.80;4996959;58;1141104;-75
2022/01/18 20:51:26;;;;;;;53.50;16.17;;;;;;;0.67;100.00;102415.96;5178828;56;1141179;-81
2022/01/18 20:56:31;;;;;;;54.63;20.20;;;;;;;0.69;100.00;102413.34;5138594;56;1141187;-77
2022/01/18 21:01:37;;;;;;;41.53;14.33;;;;;;;0.73;100.00;102395.54;5045668;57;1141133;-74
2022/01/18 21:06:44;;;;;;;27.47;10.20;;;;;;;0.73;100.00;102395.97;5120637;57;1141623;-80
2022/01/18 21:11:51;;;;;;;35.30;10.63;;;;;;;0.73;100.00;102399.45;5120658;57;1141302;-75
2022/01/18 21:16:57;;;;;;;40.10;12.07;;;;;;;0.78;100.00;102398.09;5147620;56;1141305;-78
2022/01/18 21:22:04;;;;;;;66.00;23.17;;;;;;;0.77;100.00;102387.24;5073883;57;1141123;-74
2022/01/18 21:27:10;;;;;;;222.30;71.47;;;;;;;0.77;100.00;102369.88;5102856;56;1141135;-77
2022/01/18 21:32:15;;;;;;;87.40;28.63;;;;;;;0.78;100.00;102369.44;5119369;57;1143246;-75
2022/01/18 21:37:21;;;;;;;152.13;53.30;;;;;;;0.80;100.00;102359.88;5129356;57;1140826;-75
2022/01/18 21:42:29;;;;;;;95.73;37.10;;;;;;;0.80;100.00;102355.97;5124757;56;1143363;-71
2022/01/18 21:47:34;;;;;;;68.90;23.13;;;;;;;0.85;100.00;102352.91;5122018;56;1140611;-80
2022/01/18 21:52:41;;;;;;;59.20;18.23;;;;;;;0.83;100.00;102347.70;5114759;56;1141098;-80
2022/01/18 21:57:48;;;;;;;58.03;17.57;;;;;;;0.87;100.00;102356.36;5098196;57;1141185;-70
2022/01/18 22:02:53;;;;;;;68.13;22.40;;;;;;;0.89;100.00;102351.57;5039417;58;1141289;-72
2022/01/18 22:07:59;;;;;;;37.93;12.13;;;;;;;0.90;100.00;102339.41;5080461;57;1141453;-72
2022/01/18 22:13:05;;;;;;;38.90;13.33;;;;;;;0.94;100.00;102335.88;5050716;57;1141069;-72
2022/01/18 22:18:10;;;;;;;44.97;15.90;;;;;;;0.96;100.00;102325.88;5079730;57;1141639;-73
2022/01/18 22:23:17;;;;;;;41.50;13.90;;;;;;;1.00;100.00;102314.56;5073091;57;1141156;-73
2022/01/18 22:28:23;;;;;;;143.50;45.50;;;;;;;0.99;100.00;102310.22;5018631;57;1141283;-76
2022/01/18 22:33:29;;;;;;;113.70;31.93;;;;;;;1.00;100.00;102305.44;5105053;57;1143401;-68
2022/01/18 22:38:36;;;;;;;45.93;13.93;;;;;;;1.03;100.00;102305.86;5123158;56;1143306;-71
2022/01/18 22:43:42;;;;;;;45.10;11.30;;;;;;;1.07;100.00;102303.63;5178741;56;1141416;-71
2022/01/18 22:48:48;;;;;;;34.47;10.77;;;;;;;1.09;100.00;102301.87;5178786;56;1141128;-75
2022/01/18 22:53:53;;;;;;;41.23;12.60;;;;;;;1.15;100.00;102295.74;5112646;57;1141409;-74
2022/01/18 22:58:59;;;;;;;29.40;7.75;;;;;;;1.19;100.00;102285.72;5200400;56;1141153;-71
2022/01/18 23:04:05;;;;;;;47.23;14.30;;;;;;;1.20;100.00;102283.09;5196857;56;1139045;-70
2022/01/18 23:09:11;;;;;;;47.60;13.73;;;;;;;1.25;100.00;102268.69;5148988;57;1141160;-71
2022/01/18 23:14:17;;;;;;;249.77;61.47;;;;;;;1.26;100.00;102257.39;5148936;57;1141945;-70
2022/01/18 23:19:22;;;;;;;73.87;16.43;;;;;;;1.30;100.00;102256.48;5148770;57;1143162;-72
2022/01/18 23:24:28;;;;;;;56.83;12.33;;;;;;;1.34;100.00;102262.09;5148859;57;1141661;-72
2022/01/18 23:29:34;;;;;;;30.20;9.17;;;;;;;1.35;100.00;102256.86;5136728;57;1141048;-74
2022/01/18 23:34:40;;;;;;;41.27;10.47;;;;;;;1.35;100.00;102245.14;5276005;55;1139236;-69
2022/01/18 23:39:57;;;;;;;26.40;8.77;;;;;;;1.39;100.00;102242.89;5306499;55;1141161;-76
2022/01/18 23:44:54;;;;;;;35.27;10.23;;;;;;;1.44;100.00;102231.55;5289036;55;1139142;-71
2022/01/18 23:50:00;;;;;;;41.40;11.50;;;;;;;1.45;100.00;102222.84;5283043;56;1139497;-72
2022/01/18 23:55:06;;;;;;;49.60;10.17;;;;;;;1.46;100.00;102215.02;5244115;56;1139189;-73
